createdAt,value
2019-01-17T00:01:40.287Z,87.30
2019-01-17T00:05:13.668Z,87.30
2019-01-17T00:08:36.172Z,87.30
2019-01-17T00:11:58.602Z,87.30
2019-01-17T00:15:26.192Z,87.20
2019-01-17T00:18:50.802Z,87.10
2019-01-17T00:22:13.600Z,87.00
2019-01-17T00:25:37.779Z,87.00
2019-01-17T00:29:01.923Z,87.00
2019-01-17T00:32:29.214Z,87.00
2019-01-17T00:35:52.028Z,87.10
2019-01-17T00:39:24.989Z,87.20
2019-01-17T00:42:54.990Z,87.30
2019-01-17T00:46:17.954Z,87.30
2019-01-17T00:49:53.150Z,87.40
2019-01-17T00:53:09.219Z,87.40
2019-01-17T00:56:32.019Z,87.40
2019-01-17T00:59:56.198Z,87.50
2019-01-17T01:03:12.454Z,87.50
2019-01-17T01:06:42.421Z,87.40
2019-01-17T01:10:01.932Z,87.30
2019-01-17T01:13:24.726Z,87.20
2019-01-17T01:17:22.642Z,87.30
2019-01-17T01:20:49.582Z,87.60
2019-01-17T01:24:31.630Z,87.10
2019-01-17T01:27:55.185Z,87.20
2019-01-17T01:31:28.626Z,87.10
2019-01-17T01:34:55.532Z,86.80
2019-01-17T01:38:18.417Z,86.30
2019-01-17T01:41:42.602Z,85.90
2019-01-17T01:45:12.919Z,86.00
2019-01-17T01:48:25.767Z,85.10
2019-01-17T01:51:48.299Z,84.60
2019-01-17T01:54:53.368Z,85.10
2019-01-17T01:57:58.408Z,83.90
2019-01-17T02:01:03.544Z,83.60
2019-01-17T02:04:08.662Z,83.50
2019-01-17T02:07:13.759Z,83.20
2019-01-17T02:10:18.884Z,83.10
2019-01-17T02:13:23.984Z,82.90
2019-01-17T02:16:29.023Z,82.70
2019-01-17T02:19:34.063Z,82.50
2019-01-17T02:22:39.171Z,82.40
2019-01-17T02:25:44.295Z,82.30
2019-01-17T02:28:49.395Z,82.10
2019-01-17T02:31:54.520Z,81.80
2019-01-17T02:34:59.654Z,81.60
2019-01-17T02:38:04.856Z,81.60
2019-01-17T02:41:09.899Z,81.60
2019-01-17T02:44:15.008Z,82.50
2019-01-17T02:47:20.139Z,81.90
2019-01-17T02:50:25.297Z,82.10
2019-01-17T02:53:30.413Z,82.30
2019-01-17T02:56:35.429Z,82.40
2019-01-17T02:59:40.555Z,82.50
2019-01-17T03:02:45.656Z,82.70
2019-01-17T03:05:50.752Z,82.90
2019-01-17T03:08:55.875Z,83.40
2019-01-17T03:12:00.971Z,83.80
2019-01-17T03:15:06.526Z,84.10
2019-01-17T03:18:11.622Z,84.40
2019-01-17T03:21:16.672Z,84.50
2019-01-17T03:24:21.697Z,84.60
2019-01-17T03:27:26.743Z,84.80
2019-01-17T03:30:31.850Z,85.20
2019-01-17T03:33:36.964Z,85.50
2019-01-17T03:36:42.163Z,85.70
2019-01-17T03:39:47.280Z,85.60
2019-01-17T03:42:52.399Z,85.40
2019-01-17T03:45:57.487Z,85.60
2019-01-17T03:49:02.529Z,85.80
2019-01-17T03:52:07.615Z,85.70
2019-01-17T03:55:14.836Z,85.60
2019-01-17T03:58:19.927Z,85.60
2019-01-17T04:01:25.042Z,85.50
2019-01-17T04:04:30.129Z,85.30
2019-01-17T04:07:35.228Z,85.20
2019-01-17T04:10:40.339Z,85.00
2019-01-17T04:13:45.363Z,84.90
2019-01-17T04:16:50.407Z,84.60
2019-01-17T04:19:55.479Z,84.40
2019-01-17T04:23:00.583Z,84.30
2019-01-17T04:26:05.746Z,84.00
2019-01-17T04:29:10.775Z,83.80
2019-01-17T04:32:15.817Z,83.70
2019-01-17T04:35:20.927Z,83.50
2019-01-17T04:38:25.944Z,83.30
2019-01-17T04:41:31.059Z,82.70
2019-01-17T04:44:36.175Z,82.40
2019-01-17T04:47:41.272Z,82.00
2019-01-17T04:50:46.375Z,81.80
2019-01-17T04:53:51.332Z,81.60
2019-01-17T04:56:56.433Z,81.40
2019-01-17T05:00:01.455Z,81.30
2019-01-17T05:03:06.483Z,81.20
2019-01-17T05:06:11.568Z,81.10
2019-01-17T05:09:16.681Z,81.10
2019-01-17T05:12:21.776Z,81.20
2019-01-17T05:15:27.124Z,81.30
2019-01-17T05:18:32.160Z,81.50
2019-01-17T05:21:37.337Z,81.70
2019-01-17T05:24:42.380Z,81.70
2019-01-17T05:27:47.535Z,81.70
2019-01-17T05:30:52.580Z,81.70
2019-01-17T05:33:57.683Z,81.60
2019-01-17T05:37:02.794Z,81.60
2019-01-17T05:40:10.736Z,81.70
2019-01-17T05:43:15.839Z,81.60
2019-01-17T05:46:20.960Z,81.60
2019-01-17T05:49:25.982Z,81.60
2019-01-17T05:52:31.113Z,81.50
2019-01-17T05:55:36.147Z,81.60
2019-01-17T05:58:41.632Z,81.50
2019-01-17T06:01:46.775Z,81.60
2019-01-17T06:04:53.276Z,81.50
2019-01-17T06:07:58.471Z,81.40
2019-01-17T06:11:03.784Z,81.40
2019-01-17T06:14:09.055Z,81.50
2019-01-17T06:17:14.356Z,81.60
2019-01-17T06:20:19.667Z,82.40
2019-01-17T06:23:24.750Z,81.80
2019-01-17T06:26:32.136Z,82.60
2019-01-17T06:29:38.497Z,82.70
2019-01-17T06:32:43.703Z,81.90
2019-01-17T06:35:48.824Z,82.00
2019-01-17T06:38:53.866Z,82.00
2019-01-17T06:41:58.955Z,82.00
2019-01-17T06:45:04.286Z,82.00
2019-01-17T06:48:09.496Z,82.10
2019-01-17T06:51:14.612Z,82.10
2019-01-17T06:54:19.711Z,82.10
2019-01-17T06:57:24.778Z,82.10
2019-01-17T07:00:30.299Z,82.20
2019-01-17T07:03:35.755Z,82.30
2019-01-17T07:06:40.864Z,82.40
2019-01-17T07:09:45.965Z,82.50
2019-01-17T07:12:51.065Z,82.60
2019-01-17T07:15:56.163Z,82.60
2019-01-17T07:19:01.283Z,82.70
2019-01-17T07:22:06.409Z,82.70
2019-01-17T07:25:11.822Z,82.70
2019-01-17T07:28:16.847Z,82.80
2019-01-17T07:31:21.888Z,82.90
2019-01-17T07:34:26.928Z,83.00
2019-01-17T07:37:31.955Z,83.00
2019-01-17T07:40:37.016Z,83.00
2019-01-17T07:43:42.056Z,83.10
2019-01-17T07:46:47.167Z,83.00
2019-01-17T07:49:52.259Z,83.10
2019-01-17T07:52:57.412Z,83.20
2019-01-17T07:56:02.539Z,83.20
2019-01-17T07:59:07.618Z,83.20
2019-01-17T08:02:12.727Z,83.30
2019-01-17T08:05:18.116Z,83.50
2019-01-17T08:08:23.152Z,83.70
2019-01-17T08:11:28.175Z,84.10
2019-01-17T08:14:34.275Z,84.30
2019-01-17T08:17:39.507Z,84.30
2019-01-17T08:20:44.664Z,84.50
2019-01-17T08:23:49.771Z,84.60
2019-01-17T08:26:54.868Z,84.60
2019-01-17T08:29:59.826Z,84.60
2019-01-17T08:33:05.020Z,84.80
2019-01-17T08:36:10.117Z,84.80
2019-01-17T08:39:15.229Z,85.10
2019-01-17T08:42:20.263Z,85.40
2019-01-17T08:45:25.364Z,85.70
2019-01-17T08:48:30.447Z,86.00
2019-01-17T08:51:35.480Z,86.20
2019-01-17T08:54:40.594Z,86.60
2019-01-17T08:57:45.727Z,86.90
2019-01-17T09:00:50.775Z,87.20
2019-01-17T09:03:55.822Z,87.40
2019-01-17T09:07:00.963Z,87.50
2019-01-17T09:10:07.142Z,87.70
2019-01-17T09:13:12.254Z,87.90
2019-01-17T09:16:17.366Z,88.20
2019-01-17T09:19:22.476Z,88.30
2019-01-17T09:22:27.582Z,88.20
2019-01-17T09:25:32.694Z,88.20
2019-01-17T09:28:37.739Z,88.20
2019-01-17T09:31:42.857Z,87.90
2019-01-17T09:34:47.999Z,87.90
2019-01-17T09:37:53.119Z,88.00
2019-01-17T09:40:58.238Z,88.10
2019-01-17T09:44:03.471Z,88.40
2019-01-17T09:47:08.600Z,88.40
2019-01-17T09:50:15.964Z,88.40
2019-01-17T09:53:20.994Z,88.40
2019-01-17T09:56:26.181Z,88.50
2019-01-17T09:59:31.317Z,88.80
2019-01-17T10:02:38.422Z,89.10
2019-01-17T10:05:43.875Z,89.40
2019-01-17T10:08:49.100Z,89.90
2019-01-17T10:11:54.324Z,90.00
2019-01-17T10:15:00.192Z,89.90
2019-01-17T10:18:30.719Z,89.80
2019-01-17T10:22:19.731Z,89.80
2019-01-17T10:26:21.207Z,90.00
2019-01-17T10:30:00.925Z,90.40
2019-01-17T10:33:40.153Z,90.20
2019-01-17T10:37:07.247Z,90.30
2019-01-17T10:41:01.775Z,90.40
2019-01-17T10:44:56.698Z,90.50
2019-01-17T10:48:31.431Z,90.70
2019-01-17T10:52:25.335Z,90.70
2019-01-17T10:56:16.902Z,90.70
2019-01-17T10:59:30.192Z,90.70
2019-01-17T11:02:59.192Z,90.80
2019-01-17T11:06:48.799Z,90.90
2019-01-17T11:10:35.556Z,91.00
2019-01-17T11:14:39.679Z,91.10
2019-01-17T11:18:31.423Z,91.00
2019-01-17T11:22:27.231Z,91.20
2019-01-17T11:26:10.350Z,91.30
2019-01-17T11:29:54.899Z,91.40
2019-01-17T11:33:26.694Z,91.50
2019-01-17T11:37:10.164Z,91.60
2019-01-17T11:40:39.900Z,91.70
2019-01-17T11:44:46.353Z,91.80
2019-01-17T11:48:24.639Z,91.90
2019-01-17T11:52:09.946Z,91.90
2019-01-17T11:55:34.777Z,92.10
2019-01-17T11:59:06.577Z,92.10
2019-01-17T12:03:07.771Z,92.30
2019-01-17T12:06:12.867Z,92.30
2019-01-17T12:09:17.840Z,92.40
2019-01-17T12:12:23.628Z,92.70
2019-01-17T12:15:28.658Z,92.80
2019-01-17T12:18:33.761Z,93.10
2019-01-17T12:21:38.867Z,93.20
2019-01-17T12:24:43.895Z,93.30
2019-01-17T12:27:49.015Z,93.30
2019-01-17T12:30:54.115Z,93.20
2019-01-17T12:33:59.071Z,93.10
2019-01-17T12:37:04.337Z,92.90
2019-01-17T12:40:11.829Z,92.70
2019-01-17T12:43:16.959Z,92.40
2019-01-17T12:46:22.004Z,92.20
2019-01-17T12:49:27.119Z,91.80
2019-01-17T12:52:32.153Z,91.60
2019-01-17T12:55:37.347Z,91.10
2019-01-17T12:58:42.832Z,91.20
2019-01-17T13:01:48.398Z,91.10
2019-01-17T13:04:54.101Z,91.10
2019-01-17T13:07:59.600Z,91.00
2019-01-17T13:11:05.320Z,91.50
2019-01-17T13:14:10.787Z,91.00
2019-01-17T13:17:16.302Z,90.70
2019-01-17T13:20:21.962Z,90.50
2019-01-17T13:23:27.471Z,90.40
2019-01-17T13:26:32.975Z,90.20
2019-01-17T13:29:38.215Z,90.00
2019-01-17T13:32:43.367Z,89.70
2019-01-17T13:35:48.822Z,88.90
2019-01-17T13:38:54.275Z,88.60
2019-01-17T13:41:59.478Z,88.50
2019-01-17T13:45:06.500Z,88.10
2019-01-17T13:48:11.648Z,87.30
2019-01-17T13:51:17.108Z,86.30
2019-01-17T13:54:22.557Z,85.70
2019-01-17T13:57:27.891Z,85.10
2019-01-17T14:00:33.391Z,84.80
2019-01-17T14:03:38.658Z,84.50
2019-01-17T14:06:44.078Z,83.70
2019-01-17T14:09:49.640Z,83.40
2019-01-17T14:12:54.681Z,82.90
2019-01-17T14:16:01.816Z,82.60
2019-01-17T14:19:07.185Z,82.80
2019-01-17T14:22:13.235Z,82.30
2019-01-17T14:25:18.449Z,81.70
2019-01-17T14:28:23.656Z,82.00
2019-01-17T14:31:28.955Z,82.10
2019-01-17T14:34:34.431Z,82.20
2019-01-17T14:37:39.764Z,81.70
2019-01-17T14:40:44.896Z,81.80
2019-01-17T14:43:50.092Z,82.10
2019-01-17T14:46:55.580Z,82.30
2019-01-17T14:50:01.538Z,82.20
2019-01-17T14:53:07.041Z,82.50
2019-01-17T14:56:12.337Z,82.30
2019-01-17T14:59:17.583Z,82.40
2019-01-17T15:02:22.979Z,82.50
2019-01-17T15:05:28.314Z,82.50
2019-01-17T15:08:33.619Z,82.60
2019-01-17T15:11:38.849Z,82.90
2019-01-17T15:14:44.580Z,83.00
2019-01-17T15:17:49.767Z,84.10
2019-01-17T15:20:55.025Z,83.50
2019-01-17T15:24:00.216Z,83.70
2019-01-17T15:27:05.391Z,84.00
2019-01-17T15:30:13.815Z,84.20
2019-01-17T15:33:19.018Z,84.50
2019-01-17T15:36:24.108Z,85.00
2019-01-17T15:39:29.563Z,85.80
2019-01-17T15:42:34.525Z,87.10
2019-01-17T15:45:39.758Z,88.60
2019-01-17T15:48:44.909Z,90.20
2019-01-17T15:51:50.136Z,90.80
2019-01-17T15:54:55.548Z,91.20
2019-01-17T15:58:00.661Z,91.60
2019-01-17T16:01:06.144Z,91.70
2019-01-17T16:04:11.516Z,91.80
2019-01-17T16:07:16.624Z,91.80
2019-01-17T16:10:21.715Z,91.70
2019-01-17T16:13:26.821Z,91.50
2019-01-17T16:16:31.865Z,91.60
2019-01-17T16:19:36.971Z,91.40
2019-01-17T16:22:42.160Z,91.40
2019-01-17T16:25:47.244Z,91.20
2019-01-17T16:28:52.291Z,91.20
2019-01-17T16:31:57.330Z,91.10
2019-01-17T16:35:02.375Z,91.10
2019-01-17T16:38:07.474Z,91.10
2019-01-17T16:41:12.504Z,91.10
2019-01-17T16:44:17.521Z,91.10
2019-01-17T16:47:22.631Z,91.10
2019-01-17T16:50:27.799Z,91.30
2019-01-17T16:53:32.892Z,91.40
2019-01-17T16:56:38.005Z,91.40
2019-01-17T16:59:43.099Z,91.60
2019-01-17T17:02:48.237Z,91.70
2019-01-17T17:05:53.319Z,92.00
2019-01-17T17:08:58.428Z,92.10
2019-01-17T17:12:03.459Z,92.20
2019-01-17T17:15:08.924Z,92.20
2019-01-17T17:18:14.436Z,92.30
2019-01-17T17:21:19.634Z,92.50
2019-01-17T17:24:24.739Z,92.60
2019-01-17T17:27:29.873Z,92.60
2019-01-17T17:30:34.984Z,92.50
2019-01-17T17:33:40.080Z,92.50
2019-01-17T17:36:45.174Z,92.40
2019-01-17T17:39:50.187Z,92.00
2019-01-17T17:42:55.296Z,91.50
2019-01-17T17:46:00.419Z,91.20
2019-01-17T17:49:05.547Z,91.00
2019-01-17T17:52:10.604Z,90.80
2019-01-17T17:55:15.724Z,90.70
2019-01-17T17:58:26.216Z,90.70
2019-01-17T18:01:40.496Z,90.50
2019-01-17T18:04:45.717Z,90.20
2019-01-17T18:07:50.809Z,90.10
2019-01-17T18:10:55.924Z,89.80
2019-01-17T18:14:00.993Z,89.20
2019-01-17T18:17:06.158Z,88.70
2019-01-17T18:20:12.424Z,89.30
2019-01-17T18:23:17.457Z,90.80
2019-01-17T18:26:22.564Z,92.10
2019-01-17T18:29:27.650Z,93.00
2019-01-17T18:32:32.755Z,93.70
2019-01-17T18:35:37.865Z,94.40
2019-01-17T18:38:42.962Z,94.90
2019-01-17T18:41:48.894Z,95.40
2019-01-17T18:44:54.036Z,95.50
2019-01-17T18:47:59.152Z,95.70
2019-01-17T18:51:05.448Z,95.90
2019-01-17T18:54:10.634Z,96.10
2019-01-17T18:57:15.740Z,96.40
2019-01-17T19:00:23.776Z,96.40
2019-01-17T19:03:28.786Z,96.50
2019-01-17T19:06:33.903Z,96.80
2019-01-17T19:09:39.004Z,96.70
2019-01-17T19:12:44.155Z,96.70
2019-01-17T19:15:49.265Z,96.80
2019-01-17T19:18:54.376Z,97.00
2019-01-17T19:21:59.495Z,97.10
2019-01-17T19:25:05.227Z,97.00
2019-01-17T19:28:10.480Z,97.20
2019-01-17T19:31:15.723Z,97.10
2019-01-17T19:34:23.637Z,97.20
2019-01-17T19:37:28.722Z,97.30
2019-01-17T19:40:34.247Z,97.30
2019-01-17T19:43:39.631Z,97.20
2019-01-17T19:46:44.749Z,97.10
2019-01-17T19:49:50.176Z,97.00
2019-01-17T19:52:55.357Z,97.00
2019-01-17T19:56:00.587Z,96.90
2019-01-17T19:59:05.690Z,96.90
2019-01-17T20:02:11.118Z,97.00
2019-01-17T20:05:17.337Z,97.10
2019-01-17T20:08:22.475Z,97.10
2019-01-17T20:11:27.573Z,97.00
2019-01-17T20:14:34.018Z,97.00
2019-01-17T20:17:39.111Z,97.10
2019-01-17T20:20:44.226Z,97.20
2019-01-17T20:23:49.320Z,97.50
2019-01-17T20:26:54.532Z,97.80
2019-01-17T20:30:00.185Z,97.90
2019-01-17T20:33:07.179Z,97.80
2019-01-17T20:36:12.306Z,97.70
2019-01-17T20:39:17.419Z,97.50
2019-01-17T20:42:22.575Z,97.30
2019-01-17T20:45:27.620Z,97.10
2019-01-17T20:48:32.693Z,96.90
2019-01-17T20:51:37.811Z,96.00
2019-01-17T20:54:42.940Z,95.60
2019-01-17T20:57:49.196Z,95.90
2019-01-17T21:01:29.577Z,96.30
2019-01-17T21:04:34.652Z,96.80
2019-01-17T21:07:39.748Z,97.20
2019-01-17T21:10:44.788Z,97.40
2019-01-17T21:13:49.920Z,97.60
2019-01-17T21:16:55.031Z,97.70
2019-01-17T21:20:01.771Z,97.90
2019-01-17T21:23:07.269Z,97.70
2019-01-17T21:26:12.350Z,97.60
2019-01-17T21:29:17.329Z,97.60
2019-01-17T21:32:22.384Z,97.70
2019-01-17T21:35:28.027Z,97.80
2019-01-17T21:38:33.081Z,97.80
2019-01-17T21:41:38.266Z,97.70
2019-01-17T21:44:43.319Z,97.70
2019-01-17T21:47:48.517Z,97.70
2019-01-17T21:50:53.649Z,97.60
2019-01-17T21:53:58.827Z,97.50
2019-01-17T21:57:03.946Z,97.40
2019-01-17T22:00:13.492Z,97.30
2019-01-17T22:03:18.855Z,97.10
2019-01-17T22:06:23.968Z,97.00
2019-01-17T22:09:29.481Z,96.90
2019-01-17T22:12:35.589Z,96.80
2019-01-17T22:15:40.917Z,96.80
2019-01-17T22:18:46.518Z,96.70
2019-01-17T22:21:51.999Z,96.60
2019-01-17T22:24:57.194Z,96.50
2019-01-17T22:28:02.250Z,96.50
2019-01-17T22:31:07.384Z,96.40
2019-01-17T22:34:12.491Z,96.40
2019-01-17T22:37:17.828Z,96.40
2019-01-17T22:40:23.182Z,96.40
2019-01-17T22:43:28.475Z,96.30
2019-01-17T22:46:33.582Z,96.10
2019-01-17T22:49:38.620Z,95.90
2019-01-17T22:52:44.773Z,95.60
2019-01-17T22:55:50.091Z,95.40
2019-01-17T22:58:55.860Z,95.20
2019-01-17T23:02:01.426Z,95.00
2019-01-17T23:05:06.574Z,95.00
2019-01-17T23:08:11.698Z,95.00
2019-01-17T23:11:16.839Z,94.90
2019-01-17T23:14:21.942Z,94.80
2019-01-17T23:17:27.081Z,95.00
2019-01-17T23:20:32.183Z,94.70
2019-01-17T23:23:38.413Z,94.60
2019-01-17T23:26:43.664Z,94.60
2019-01-17T23:29:48.783Z,94.50
2019-01-17T23:32:53.802Z,94.60
2019-01-17T23:35:58.940Z,94.60
2019-01-17T23:39:07.163Z,94.60
2019-01-17T23:42:12.198Z,94.70
2019-01-17T23:45:17.321Z,94.80
2019-01-17T23:48:22.353Z,94.80
2019-01-17T23:51:27.487Z,94.80
2019-01-17T23:54:32.623Z,94.90
2019-01-17T23:57:37.747Z,94.90
